sensor_id;sensor_type;location;lat;lon;timestamp;P1;durP1;ratioP1;P2;durP2;ratioP2
17927;SDS011;9089;58.396;15.544;2023-02-28T00:00:05;1.67;;;1.58;;
17927;SDS011;9089;58.396;15.544;2023-02-28T00:02:36;1.60;;;1.50;;
17927;SDS011;9089;58.396;15.544;2023-02-28T00:05:01;2.05;;;1.88;;
17927;SDS011;9089;58.396;15.544;2023-02-28T00:07:28;1.70;;;1.60;;
17927;SDS011;9089;58.396;15.544;2023-02-28T00:09:54;1.58;;;1.48;;
17927;SDS011;9089;58.396;15.544;2023-02-28T00:12:20;1.98;;;1.58;;
17927;SDS011;9089;58.396;15.544;2023-02-28T00:14:46;1.73;;;1.48;;
17927;SDS011;9089;58.396;15.544;2023-02-28T00:17:11;1.90;;;1.80;;
17927;SDS011;9089;58.396;15.544;2023-02-28T00:19:37;1.88;;;1.77;;
17927;SDS011;9089;58.396;15.544;2023-02-28T00:22:02;2.03;;;1.80;;
17927;SDS011;9089;58.396;15.544;2023-02-28T00:24:27;2.95;;;1.80;;
17927;SDS011;9089;58.396;15.544;2023-02-28T00:26:53;1.83;;;1.60;;
17927;SDS011;9089;58.396;15.544;2023-02-28T00:29:20;1.75;;;1.58;;
17927;SDS011;9089;58.396;15.544;2023-02-28T00:31:45;1.70;;;1.58;;
17927;SDS011;9089;58.396;15.544;2023-02-28T00:34:10;2.00;;;1.80;;
17927;SDS011;9089;58.396;15.544;2023-02-28T00:36:36;2.28;;;1.90;;
17927;SDS011;9089;58.396;15.544;2023-02-28T00:39:03;1.98;;;1.85;;
17927;SDS011;9089;58.396;15.544;2023-02-28T00:41:29;1.70;;;1.60;;
17927;SDS011;9089;58.396;15.544;2023-02-28T00:43:54;2.60;;;1.90;;
17927;SDS011;9089;58.396;15.544;2023-02-28T00:46:21;2.85;;;2.10;;
17927;SDS011;9089;58.396;15.544;2023-02-28T00:48:46;1.77;;;1.65;;
17927;SDS011;9089;58.396;15.544;2023-02-28T00:51:13;2.65;;;1.88;;
17927;SDS011;9089;58.396;15.544;2023-02-28T00:53:39;1.65;;;1.55;;
17927;SDS011;9089;58.396;15.544;2023-02-28T00:56:04;1.90;;;1.67;;
17927;SDS011;9089;58.396;15.544;2023-02-28T00:58:30;1.55;;;1.45;;
17927;SDS011;9089;58.396;15.544;2023-02-28T01:00:56;1.55;;;1.45;;
17927;SDS011;9089;58.396;15.544;2023-02-28T01:03:23;2.70;;;1.60;;
17927;SDS011;9089;58.396;15.544;2023-02-28T01:05:48;1.63;;;1.52;;
17927;SDS011;9089;58.396;15.544;2023-02-28T01:08:15;4.35;;;1.70;;
17927;SDS011;9089;58.396;15.544;2023-02-28T01:10:41;2.13;;;1.60;;
17927;SDS011;9089;58.396;15.544;2023-02-28T01:13:06;3.30;;;1.77;;
17927;SDS011;9089;58.396;15.544;2023-02-28T01:15:35;2.10;;;1.75;;
17927;SDS011;9089;58.396;15.544;2023-02-28T01:18:01;1.85;;;1.75;;
17927;SDS011;9089;58.396;15.544;2023-02-28T01:20:27;2.05;;;1.70;;
17927;SDS011;9089;58.396;15.544;2023-02-28T01:22:53;1.70;;;1.60;;
17927;SDS011;9089;58.396;15.544;2023-02-28T01:25:18;2.42;;;1.70;;
17927;SDS011;9089;58.396;15.544;2023-02-28T01:27:44;1.60;;;1.50;;
17927;SDS011;9089;58.396;15.544;2023-02-28T01:30:10;1.45;;;1.35;;
17927;SDS011;9089;58.396;15.544;2023-02-28T01:32:35;1.63;;;1.52;;
17927;SDS011;9089;58.396;15.544;2023-02-28T01:35:01;1.50;;;1.33;;
17927;SDS011;9089;58.396;15.544;2023-02-28T01:37:27;1.58;;;1.40;;
17927;SDS011;9089;58.396;15.544;2023-02-28T01:39:53;1.40;;;1.30;;
17927;SDS011;9089;58.396;15.544;2023-02-28T01:42:19;1.70;;;1.60;;
17927;SDS011;9089;58.396;15.544;2023-02-28T01:44:55;1.30;;;1.20;;
17927;SDS011;9089;58.396;15.544;2023-02-28T01:47:21;1.80;;;1.42;;
17927;SDS011;9089;58.396;15.544;2023-02-28T01:49:48;1.40;;;1.30;;
17927;SDS011;9089;58.396;15.544;2023-02-28T01:52:14;1.50;;;1.30;;
17927;SDS011;9089;58.396;15.544;2023-02-28T01:54:44;1.67;;;1.58;;
17927;SDS011;9089;58.396;15.544;2023-02-28T01:57:12;1.50;;;1.40;;
17927;SDS011;9089;58.396;15.544;2023-02-28T01:59:39;1.50;;;1.40;;
17927;SDS011;9089;58.396;15.544;2023-02-28T02:02:16;1.83;;;1.40;;
17927;SDS011;9089;58.396;15.544;2023-02-28T02:04:43;1.50;;;1.33;;
17927;SDS011;9089;58.396;15.544;2023-02-28T02:07:11;1.48;;;1.30;;
17927;SDS011;9089;58.396;15.544;2023-02-28T02:09:37;1.63;;;1.30;;
17927;SDS011;9089;58.396;15.544;2023-02-28T02:12:06;1.75;;;1.30;;
17927;SDS011;9089;58.396;15.544;2023-02-28T02:14:41;1.35;;;1.25;;
17927;SDS011;9089;58.396;15.544;2023-02-28T02:17:12;2.03;;;1.20;;
17927;SDS011;9089;58.396;15.544;2023-02-28T02:19:53;1.45;;;1.20;;
17927;SDS011;9089;58.396;15.544;2023-02-28T02:27:52;1.52;;;1.40;;
17927;SDS011;9089;58.396;15.544;2023-02-28T02:33:09;1.48;;;1.17;;
17927;SDS011;9089;58.396;15.544;2023-02-28T02:35:40;2.80;;;1.70;;
17927;SDS011;9089;58.396;15.544;2023-02-28T02:38:08;1.40;;;1.30;;
17927;SDS011;9089;58.396;15.544;2023-02-28T02:40:36;1.48;;;1.38;;
17927;SDS011;9089;58.396;15.544;2023-02-28T02:43:04;1.75;;;1.50;;
17927;SDS011;9089;58.396;15.544;2023-02-28T02:45:32;1.73;;;1.30;;
17927;SDS011;9089;58.396;15.544;2023-02-28T02:48:01;1.80;;;1.50;;
17927;SDS011;9089;58.396;15.544;2023-02-28T02:50:29;1.40;;;1.30;;
17927;SDS011;9089;58.396;15.544;2023-02-28T02:52:59;1.98;;;1.30;;
17927;SDS011;9089;58.396;15.544;2023-02-28T02:55:27;1.45;;;1.10;;
17927;SDS011;9089;58.396;15.544;2023-02-28T02:58:13;2.22;;;1.27;;
17927;SDS011;9089;58.396;15.544;2023-02-28T03:00:40;2.00;;;1.33;;
17927;SDS011;9089;58.396;15.544;2023-02-28T03:03:09;1.35;;;1.17;;
17927;SDS011;9089;58.396;15.544;2023-02-28T03:05:35;2.10;;;1.40;;
17927;SDS011;9089;58.396;15.544;2023-02-28T03:08:06;1.90;;;1.60;;
17927;SDS011;9089;58.396;15.544;2023-02-28T03:10:33;2.22;;;1.60;;
17927;SDS011;9089;58.396;15.544;2023-02-28T03:13:12;1.75;;;1.65;;
17927;SDS011;9089;58.396;15.544;2023-02-28T03:15:44;1.67;;;1.30;;
17927;SDS011;9089;58.396;15.544;2023-02-28T03:18:14;1.33;;;1.23;;
17927;SDS011;9089;58.396;15.544;2023-02-28T03:20:45;2.15;;;1.45;;
17927;SDS011;9089;58.396;15.544;2023-02-28T03:23:19;1.65;;;1.40;;
17927;SDS011;9089;58.396;15.544;2023-02-28T03:25:52;1.55;;;1.45;;
17927;SDS011;9089;58.396;15.544;2023-02-28T03:28:39;1.23;;;1.13;;
17927;SDS011;9089;58.396;15.544;2023-02-28T03:31:07;2.45;;;1.00;;
17927;SDS011;9089;58.396;15.544;2023-02-28T03:33:36;1.75;;;1.52;;
17927;SDS011;9089;58.396;15.544;2023-02-28T03:36:03;2.30;;;1.27;;
17927;SDS011;9089;58.396;15.544;2023-02-28T03:38:31;1.30;;;1.20;;
17927;SDS011;9089;58.396;15.544;2023-02-28T03:41:00;1.67;;;1.38;;
17927;SDS011;9089;58.396;15.544;2023-02-28T03:43:27;2.08;;;1.33;;
17927;SDS011;9089;58.396;15.544;2023-02-28T03:45:54;2.58;;;1.48;;
17927;SDS011;9089;58.396;15.544;2023-02-28T03:48:20;1.80;;;1.45;;
17927;SDS011;9089;58.396;15.544;2023-02-28T03:50:47;2.22;;;1.58;;
17927;SDS011;9089;58.396;15.544;2023-02-28T03:53:14;1.60;;;1.50;;
17927;SDS011;9089;58.396;15.544;2023-02-28T03:55:44;1.60;;;1.50;;
17927;SDS011;9089;58.396;15.544;2023-02-28T03:58:11;1.33;;;1.20;;
17927;SDS011;9089;58.396;15.544;2023-02-28T04:00:38;1.92;;;1.67;;
17927;SDS011;9089;58.396;15.544;2023-02-28T04:03:05;1.25;;;1.15;;
17927;SDS011;9089;58.396;15.544;2023-02-28T04:05:30;1.65;;;1.33;;
17927;SDS011;9089;58.396;15.544;2023-02-28T04:08:03;2.08;;;1.08;;
17927;SDS011;9089;58.396;15.544;2023-02-28T04:10:28;2.00;;;1.40;;
17927;SDS011;9089;58.396;15.544;2023-02-28T04:12:55;2.22;;;1.05;;
17927;SDS011;9089;58.396;15.544;2023-02-28T04:15:20;1.40;;;1.30;;
17927;SDS011;9089;58.396;15.544;2023-02-28T04:17:48;1.13;;;1.02;;
17927;SDS011;9089;58.396;15.544;2023-02-28T04:20:13;1.40;;;1.15;;
17927;SDS011;9089;58.396;15.544;2023-02-28T04:22:38;1.48;;;1.38;;
17927;SDS011;9089;58.396;15.544;2023-02-28T04:25:04;1.35;;;1.25;;
17927;SDS011;9089;58.396;15.544;2023-02-28T04:27:30;1.50;;;1.40;;
17927;SDS011;9089;58.396;15.544;2023-02-28T04:29:57;1.75;;;1.48;;
17927;SDS011;9089;58.396;15.544;2023-02-28T04:32:22;1.70;;;1.52;;
17927;SDS011;9089;58.396;15.544;2023-02-28T04:34:48;1.60;;;1.50;;
17927;SDS011;9089;58.396;15.544;2023-02-28T04:37:13;1.45;;;1.33;;
17927;SDS011;9089;58.396;15.544;2023-02-28T04:39:39;1.67;;;1.20;;
17927;SDS011;9089;58.396;15.544;2023-02-28T04:42:05;1.40;;;1.30;;
17927;SDS011;9089;58.396;15.544;2023-02-28T04:44:30;2.03;;;1.50;;
17927;SDS011;9089;58.396;15.544;2023-02-28T04:46:58;1.55;;;1.45;;
17927;SDS011;9089;58.396;15.544;2023-02-28T04:49:41;1.67;;;1.30;;
17927;SDS011;9089;58.396;15.544;2023-02-28T04:52:07;1.00;;;1.00;;
17927;SDS011;9089;58.396;15.544;2023-02-28T04:54:32;1.50;;;1.40;;
17927;SDS011;9089;58.396;15.544;2023-02-28T04:56:58;1.73;;;1.63;;
17927;SDS011;9089;58.396;15.544;2023-02-28T04:59:23;1.25;;;1.15;;
17927;SDS011;9089;58.396;15.544;2023-02-28T05:01:49;1.30;;;1.20;;
17927;SDS011;9089;58.396;15.544;2023-02-28T05:04:16;1.35;;;1.25;;
17927;SDS011;9089;58.396;15.544;2023-02-28T05:06:41;1.23;;;1.13;;
17927;SDS011;9089;58.396;15.544;2023-02-28T05:09:06;1.45;;;1.15;;
17927;SDS011;9089;58.396;15.544;2023-02-28T05:11:32;1.35;;;1.25;;
17927;SDS011;9089;58.396;15.544;2023-02-28T05:14:02;1.27;;;1.17;;
17927;SDS011;9089;58.396;15.544;2023-02-28T05:16:28;1.38;;;1.23;;
17927;SDS011;9089;58.396;15.544;2023-02-28T05:18:54;1.60;;;1.50;;
17927;SDS011;9089;58.396;15.544;2023-02-28T05:21:25;1.40;;;1.30;;
17927;SDS011;9089;58.396;15.544;2023-02-28T05:23:51;1.35;;;1.25;;
17927;SDS011;9089;58.396;15.544;2023-02-28T05:26:17;1.42;;;1.27;;
17927;SDS011;9089;58.396;15.544;2023-02-28T05:28:43;1.38;;;1.23;;
17927;SDS011;9089;58.396;15.544;2023-02-28T05:31:09;2.00;;;1.40;;
17927;SDS011;9089;58.396;15.544;2023-02-28T05:33:54;1.40;;;1.30;;
17927;SDS011;9089;58.396;15.544;2023-02-28T05:36:19;2.97;;;1.20;;
17927;SDS011;9089;58.396;15.544;2023-02-28T05:38:47;1.42;;;1.10;;
17927;SDS011;9089;58.396;15.544;2023-02-28T05:41:13;1.23;;;1.13;;
17927;SDS011;9089;58.396;15.544;2023-02-28T05:43:39;1.35;;;1.25;;
17927;SDS011;9089;58.396;15.544;2023-02-28T05:46:05;1.35;;;1.10;;
17927;SDS011;9089;58.396;15.544;2023-02-28T05:48:30;1.40;;;1.30;;
17927;SDS011;9089;58.396;15.544;2023-02-28T05:50:56;1.98;;;1.30;;
17927;SDS011;9089;58.396;15.544;2023-02-28T05:53:22;1.58;;;1.48;;
17927;SDS011;9089;58.396;15.544;2023-02-28T05:55:49;1.45;;;1.20;;
17927;SDS011;9089;58.396;15.544;2023-02-28T05:58:14;2.83;;;1.30;;
17927;SDS011;9089;58.396;15.544;2023-02-28T06:00:40;1.42;;;1.30;;
17927;SDS011;9089;58.396;15.544;2023-02-28T06:03:05;1.63;;;1.40;;
17927;SDS011;9089;58.396;15.544;2023-02-28T06:05:31;1.30;;;1.20;;
17927;SDS011;9089;58.396;15.544;2023-02-28T06:07:56;1.70;;;1.50;;
17927;SDS011;9089;58.396;15.544;2023-02-28T06:10:40;1.50;;;1.40;;
17927;SDS011;9089;58.396;15.544;2023-02-28T06:13:07;1.42;;;1.30;;
17927;SDS011;9089;58.396;15.544;2023-02-28T06:15:32;2.45;;;1.73;;
17927;SDS011;9089;58.396;15.544;2023-02-28T06:17:58;1.88;;;1.30;;
17927;SDS011;9089;58.396;15.544;2023-02-28T06:20:23;1.30;;;1.20;;
17927;SDS011;9089;58.396;15.544;2023-02-28T06:22:49;1.40;;;1.30;;
17927;SDS011;9089;58.396;15.544;2023-02-28T06:25:16;1.90;;;1.48;;
17927;SDS011;9089;58.396;15.544;2023-02-28T06:27:42;1.52;;;1.42;;
17927;SDS011;9089;58.396;15.544;2023-02-28T06:30:10;1.55;;;1.33;;
17927;SDS011;9089;58.396;15.544;2023-02-28T06:32:36;1.50;;;1.40;;
17927;SDS011;9089;58.396;15.544;2023-02-28T06:35:02;1.10;;;1.00;;
17927;SDS011;9089;58.396;15.544;2023-02-28T06:37:27;1.60;;;1.50;;
17927;SDS011;9089;58.396;15.544;2023-02-28T06:39:53;1.77;;;1.40;;
17927;SDS011;9089;58.396;15.544;2023-02-28T06:42:21;2.22;;;1.65;;
17927;SDS011;9089;58.396;15.544;2023-02-28T06:44:47;2.28;;;1.60;;
17927;SDS011;9089;58.396;15.544;2023-02-28T06:47:14;2.35;;;1.48;;
17927;SDS011;9089;58.396;15.544;2023-02-28T06:49:39;2.60;;;1.42;;
17927;SDS011;9089;58.396;15.544;2023-02-28T06:52:04;1.58;;;1.45;;
17927;SDS011;9089;58.396;15.544;2023-02-28T06:54:30;1.65;;;1.55;;
17927;SDS011;9089;58.396;15.544;2023-02-28T06:56:57;2.83;;;1.60;;
17927;SDS011;9089;58.396;15.544;2023-02-28T06:59:23;2.28;;;1.42;;
17927;SDS011;9089;58.396;15.544;2023-02-28T07:01:48;4.03;;;1.60;;
17927;SDS011;9089;58.396;15.544;2023-02-28T07:04:15;1.58;;;1.48;;
17927;SDS011;9089;58.396;15.544;2023-02-28T07:06:40;2.60;;;1.45;;
17927;SDS011;9089;58.396;15.544;2023-02-28T07:09:06;1.48;;;1.38;;
17927;SDS011;9089;58.396;15.544;2023-02-28T07:11:31;2.55;;;1.55;;
17927;SDS011;9089;58.396;15.544;2023-02-28T07:13:57;1.48;;;1.38;;
17927;SDS011;9089;58.396;15.544;2023-02-28T07:16:23;1.58;;;1.30;;
17927;SDS011;9089;58.396;15.544;2023-02-28T07:18:49;1.45;;;1.35;;
17927;SDS011;9089;58.396;15.544;2023-02-28T07:21:16;1.77;;;1.60;;
17927;SDS011;9089;58.396;15.544;2023-02-28T07:23:41;1.63;;;1.40;;
17927;SDS011;9089;58.396;15.544;2023-02-28T07:26:07;1.33;;;1.23;;
17927;SDS011;9089;58.396;15.544;2023-02-28T07:28:36;2.83;;;1.20;;
17927;SDS011;9089;58.396;15.544;2023-02-28T07:31:04;1.83;;;1.50;;
17927;SDS011;9089;58.396;15.544;2023-02-28T07:33:30;1.50;;;1.40;;
17927;SDS011;9089;58.396;15.544;2023-02-28T07:35:59;1.38;;;1.23;;
17927;SDS011;9089;58.396;15.544;2023-02-28T07:38:26;1.20;;;1.10;;
17927;SDS011;9089;58.396;15.544;2023-02-28T07:40:52;1.40;;;1.30;;
17927;SDS011;9089;58.396;15.544;2023-02-28T07:43:17;1.60;;;1.48;;
17927;SDS011;9089;58.396;15.544;2023-02-28T07:45:42;1.83;;;1.40;;
17927;SDS011;9089;58.396;15.544;2023-02-28T07:48:08;1.10;;;1.02;;
17927;SDS011;9089;58.396;15.544;2023-02-28T07:50:35;1.30;;;1.20;;
17927;SDS011;9089;58.396;15.544;2023-02-28T07:53:00;2.13;;;1.13;;
17927;SDS011;9089;58.396;15.544;2023-02-28T07:55:27;1.77;;;1.40;;
17927;SDS011;9089;58.396;15.544;2023-02-28T07:57:52;1.73;;;1.20;;
17927;SDS011;9089;58.396;15.544;2023-02-28T08:00:18;1.30;;;1.20;;
17927;SDS011;9089;58.396;15.544;2023-02-28T08:02:43;1.40;;;1.17;;
17927;SDS011;9089;58.396;15.544;2023-02-28T08:05:27;1.75;;;1.40;;
17927;SDS011;9089;58.396;15.544;2023-02-28T08:07:53;1.13;;;1.02;;
17927;SDS011;9089;58.396;15.544;2023-02-28T08:10:18;1.77;;;1.10;;
17927;SDS011;9089;58.396;15.544;2023-02-28T08:12:45;1.30;;;1.20;;
17927;SDS011;9089;58.396;15.544;2023-02-28T08:15:10;1.10;;;1.00;;
17927;SDS011;9089;58.396;15.544;2023-02-28T08:17:36;1.30;;;1.20;;
17927;SDS011;9089;58.396;15.544;2023-02-28T08:20:01;2.28;;;1.25;;
17927;SDS011;9089;58.396;15.544;2023-02-28T08:22:45;1.83;;;1.17;;
17927;SDS011;9089;58.396;15.544;2023-02-28T08:25:11;1.38;;;1.10;;
17927;SDS011;9089;58.396;15.544;2023-02-28T08:27:36;1.20;;;1.10;;
17927;SDS011;9089;58.396;15.544;2023-02-28T08:30:03;1.30;;;1.20;;
17927;SDS011;9089;58.396;15.544;2023-02-28T08:32:29;2.95;;;1.20;;
17927;SDS011;9089;58.396;15.544;2023-02-28T08:34:54;1.25;;;1.10;;
17927;SDS011;9089;58.396;15.544;2023-02-28T08:37:20;2.42;;;1.13;;
17927;SDS011;9089;58.396;15.544;2023-02-28T08:39:46;1.20;;;0.95;;
17927;SDS011;9089;58.396;15.544;2023-02-28T08:42:11;1.85;;;1.00;;
17927;SDS011;9089;58.396;15.544;2023-02-28T08:44:36;1.42;;;1.20;;
17927;SDS011;9089;58.396;15.544;2023-02-28T08:47:03;1.30;;;1.20;;
17927;SDS011;9089;58.396;15.544;2023-02-28T08:49:29;1.30;;;1.20;;
17927;SDS011;9089;58.396;15.544;2023-02-28T08:51:54;2.03;;;1.10;;
17927;SDS011;9089;58.396;15.544;2023-02-28T08:54:22;2.03;;;1.13;;
17927;SDS011;9089;58.396;15.544;2023-02-28T08:56:48;2.28;;;0.95;;
17927;SDS011;9089;58.396;15.544;2023-02-28T08:59:13;1.27;;;1.02;;
17927;SDS011;9089;58.396;15.544;2023-02-28T09:01:39;0.90;;;0.90;;
17927;SDS011;9089;58.396;15.544;2023-02-28T09:04:07;1.98;;;1.00;;
17927;SDS011;9089;58.396;15.544;2023-02-28T09:06:34;0.98;;;0.90;;
17927;SDS011;9089;58.396;15.544;2023-02-28T09:09:00;2.33;;;1.30;;
17927;SDS011;9089;58.396;15.544;2023-02-28T09:11:26;0.98;;;0.90;;
17927;SDS011;9089;58.396;15.544;2023-02-28T09:13:52;0.93;;;0.80;;
17927;SDS011;9089;58.396;15.544;2023-02-28T09:16:18;0.80;;;0.80;;
17927;SDS011;9089;58.396;15.544;2023-02-28T09:18:43;1.50;;;1.00;;
17927;SDS011;9089;58.396;15.544;2023-02-28T09:21:13;1.13;;;0.75;;
17927;SDS011;9089;58.396;15.544;2023-02-28T09:23:39;1.20;;;1.10;;
17927;SDS011;9089;58.396;15.544;2023-02-28T09:26:05;0.88;;;0.88;;
17927;SDS011;9089;58.396;15.544;2023-02-28T09:28:30;1.00;;;0.88;;
17927;SDS011;9089;58.396;15.544;2023-02-28T09:30:56;1.30;;;1.10;;
17927;SDS011;9089;58.396;15.544;2023-02-28T09:33:24;1.85;;;0.77;;
17927;SDS011;9089;58.396;15.544;2023-02-28T09:35:49;2.05;;;0.70;;
17927;SDS011;9089;58.396;15.544;2023-02-28T09:38:16;1.17;;;1.08;;
17927;SDS011;9089;58.396;15.544;2023-02-28T09:40:45;1.02;;;0.70;;
17927;SDS011;9089;58.396;15.544;2023-02-28T09:43:12;0.73;;;0.70;;
17927;SDS011;9089;58.396;15.544;2023-02-28T09:45:39;0.80;;;0.80;;
17927;SDS011;9089;58.396;15.544;2023-02-28T09:48:07;0.52;;;0.52;;
17927;SDS011;9089;58.396;15.544;2023-02-28T09:50:36;0.60;;;0.60;;
17927;SDS011;9089;58.396;15.544;2023-02-28T09:53:06;0.77;;;0.70;;
17927;SDS011;9089;58.396;15.544;2023-02-28T09:55:37;0.60;;;0.60;;
17927;SDS011;9089;58.396;15.544;2023-02-28T09:58:04;2.03;;;0.80;;
17927;SDS011;9089;58.396;15.544;2023-02-28T10:00:31;0.63;;;0.50;;
17927;SDS011;9089;58.396;15.544;2023-02-28T10:03:01;4.57;;;0.80;;
17927;SDS011;9089;58.396;15.544;2023-02-28T10:05:29;0.60;;;0.57;;
17927;SDS011;9089;58.396;15.544;2023-02-28T10:08:01;3.97;;;1.00;;
17927;SDS011;9089;58.396;15.544;2023-02-28T10:10:32;1.77;;;0.93;;
17927;SDS011;9089;58.396;15.544;2023-02-28T10:13:01;1.05;;;0.43;;
17927;SDS011;9089;58.396;15.544;2023-02-28T10:15:29;2.63;;;0.70;;
17927;SDS011;9089;58.396;15.544;2023-02-28T10:17:56;1.95;;;0.60;;
17927;SDS011;9089;58.396;15.544;2023-02-28T10:20:23;0.40;;;0.40;;
17927;SDS011;9089;58.396;15.544;2023-02-28T10:22:57;1.70;;;0.70;;
17927;SDS011;9089;58.396;15.544;2023-02-28T10:25:24;0.75;;;0.50;;
17927;SDS011;9089;58.396;15.544;2023-02-28T10:27:49;1.02;;;0.50;;
17927;SDS011;9089;58.396;15.544;2023-02-28T10:30:16;6.65;;;2.45;;
17927;SDS011;9089;58.396;15.544;2023-02-28T10:32:43;0.63;;;0.52;;
17927;SDS011;9089;58.396;15.544;2023-02-28T10:35:15;0.70;;;0.60;;
17927;SDS011;9089;58.396;15.544;2023-02-28T10:37:41;0.47;;;0.47;;
17927;SDS011;9089;58.396;15.544;2023-02-28T10:40:11;1.85;;;0.52;;
17927;SDS011;9089;58.396;15.544;2023-02-28T10:42:54;0.70;;;0.47;;
17927;SDS011;9089;58.396;15.544;2023-02-28T10:45:21;0.47;;;0.47;;
17927;SDS011;9089;58.396;15.544;2023-02-28T10:47:49;0.73;;;0.50;;
17927;SDS011;9089;58.396;15.544;2023-02-28T10:50:28;0.60;;;0.60;;
17927;SDS011;9089;58.396;15.544;2023-02-28T10:52:54;2.35;;;0.80;;
17927;SDS011;9089;58.396;15.544;2023-02-28T10:55:21;0.30;;;0.30;;
17927;SDS011;9089;58.396;15.544;2023-02-28T10:57:48;0.40;;;0.40;;
17927;SDS011;9089;58.396;15.544;2023-02-28T11:00:15;0.30;;;0.30;;
17927;SDS011;9089;58.396;15.544;2023-02-28T11:02:42;5.65;;;0.70;;
17927;SDS011;9089;58.396;15.544;2023-02-28T11:05:24;0.22;;;0.22;;
17927;SDS011;9089;58.396;15.544;2023-02-28T11:07:51;0.30;;;0.30;;
17927;SDS011;9089;58.396;15.544;2023-02-28T11:10:18;3.92;;;0.50;;
17927;SDS011;9089;58.396;15.544;2023-02-28T11:12:44;0.47;;;0.32;;
17927;SDS011;9089;58.396;15.544;2023-02-28T11:15:18;0.70;;;0.60;;
17927;SDS011;9089;58.396;15.544;2023-02-28T11:17:53;0.95;;;0.40;;
17927;SDS011;9089;58.396;15.544;2023-02-28T11:20:20;0.57;;;0.47;;
17927;SDS011;9089;58.396;15.544;2023-02-28T11:22:46;0.50;;;0.50;;
17927;SDS011;9089;58.396;15.544;2023-02-28T11:25:16;2.05;;;0.75;;
17927;SDS011;9089;58.396;15.544;2023-02-28T11:27:46;1.95;;;0.65;;
17927;SDS011;9089;58.396;15.544;2023-02-28T11:32:54;0.60;;;0.50;;
17927;SDS011;9089;58.396;15.544;2023-02-28T11:35:21;0.47;;;0.47;;
17927;SDS011;9089;58.396;15.544;2023-02-28T11:37:48;1.40;;;0.50;;
17927;SDS011;9089;58.396;15.544;2023-02-28T11:40:13;0.50;;;0.45;;
17927;SDS011;9089;58.396;15.544;2023-02-28T11:42:43;1.52;;;1.00;;
17927;SDS011;9089;58.396;15.544;2023-02-28T11:45:26;0.82;;;0.60;;
17927;SDS011;9089;58.396;15.544;2023-02-28T11:48:00;1.30;;;0.60;;
17927;SDS011;9089;58.396;15.544;2023-02-28T11:50:38;1.80;;;0.47;;
17927;SDS011;9089;58.396;15.544;2023-02-28T11:53:05;4.13;;;0.50;;
17927;SDS011;9089;58.396;15.544;2023-02-28T11:55:36;7.28;;;0.80;;
17927;SDS011;9089;58.396;15.544;2023-02-28T11:58:13;2.95;;;1.02;;
17927;SDS011;9089;58.396;15.544;2023-02-28T12:00:43;1.08;;;0.80;;
17927;SDS011;9089;58.396;15.544;2023-02-28T12:03:25;1.08;;;0.90;;
17927;SDS011;9089;58.396;15.544;2023-02-28T12:05:54;1.88;;;0.80;;
17927;SDS011;9089;58.396;15.544;2023-02-28T12:08:26;1.73;;;1.02;;
17927;SDS011;9089;58.396;15.544;2023-02-28T12:11:01;1.20;;;0.70;;
17927;SDS011;9089;58.396;15.544;2023-02-28T12:13:29;1.10;;;1.00;;
17927;SDS011;9089;58.396;15.544;2023-02-28T12:16:17;0.80;;;0.80;;
17927;SDS011;9089;58.396;15.544;2023-02-28T12:18:50;1.00;;;0.90;;
17927;SDS011;9089;58.396;15.544;2023-02-28T12:21:18;1.05;;;0.80;;
17927;SDS011;9089;58.396;15.544;2023-02-28T12:23:54;2.47;;;0.80;;
17927;SDS011;9089;58.396;15.544;2023-02-28T12:26:23;1.42;;;1.10;;
17927;SDS011;9089;58.396;15.544;2023-02-28T12:28:53;1.00;;;0.77;;
17927;SDS011;9089;58.396;15.544;2023-02-28T12:31:20;1.70;;;1.00;;
17927;SDS011;9089;58.396;15.544;2023-02-28T12:33:48;3.90;;;1.33;;
17927;SDS011;9089;58.396;15.544;2023-02-28T12:36:18;2.25;;;1.27;;
17927;SDS011;9089;58.396;15.544;2023-02-28T12:38:47;1.48;;;0.98;;
17927;SDS011;9089;58.396;15.544;2023-02-28T12:41:13;2.10;;;1.10;;
17927;SDS011;9089;58.396;15.544;2023-02-28T12:43:40;1.73;;;1.10;;
17927;SDS011;9089;58.396;15.544;2023-02-28T12:46:09;1.77;;;0.90;;
17927;SDS011;9089;58.396;15.544;2023-02-28T12:48:37;2.92;;;1.08;;
17927;SDS011;9089;58.396;15.544;2023-02-28T12:51:04;1.15;;;0.98;;
17927;SDS011;9089;58.396;15.544;2023-02-28T12:53:34;2.67;;;0.73;;
17927;SDS011;9089;58.396;15.544;2023-02-28T12:56:21;5.45;;;1.13;;
17927;SDS011;9089;58.396;15.544;2023-02-28T12:58:49;1.20;;;0.60;;
17927;SDS011;9089;58.396;15.544;2023-02-28T13:01:28;2.78;;;0.63;;
17927;SDS011;9089;58.396;15.544;2023-02-28T13:04:16;0.30;;;0.30;;
17927;SDS011;9089;58.396;15.544;2023-02-28T13:06:53;0.68;;;0.68;;
17927;SDS011;9089;58.396;15.544;2023-02-28T13:09:24;0.65;;;0.47;;
17927;SDS011;9089;58.396;15.544;2023-02-28T13:11:50;3.13;;;0.50;;
17927;SDS011;9089;58.396;15.544;2023-02-28T13:14:19;0.95;;;0.70;;
17927;SDS011;9089;58.396;15.544;2023-02-28T13:16:49;0.68;;;0.55;;
17927;SDS011;9089;58.396;15.544;2023-02-28T13:19:16;3.40;;;0.57;;
17927;SDS011;9089;58.396;15.544;2023-02-28T13:21:43;0.93;;;0.60;;
17927;SDS011;9089;58.396;15.544;2023-02-28T13:24:10;7.97;;;0.80;;
17927;SDS011;9089;58.396;15.544;2023-02-28T13:29:27;1.27;;;0.82;;
17927;SDS011;9089;58.396;15.544;2023-02-28T13:34:38;1.63;;;0.73;;
17927;SDS011;9089;58.396;15.544;2023-02-28T13:39:55;1.00;;;0.80;;
17927;SDS011;9089;58.396;15.544;2023-02-28T13:42:32;0.80;;;0.70;;
17927;SDS011;9089;58.396;15.544;2023-02-28T13:45:21;0.65;;;0.63;;
17927;SDS011;9089;58.396;15.544;2023-02-28T13:47:51;2.55;;;0.82;;
17927;SDS011;9089;58.396;15.544;2023-02-28T13:50:26;3.03;;;0.57;;
17927;SDS011;9089;58.396;15.544;2023-02-28T13:52:55;1.40;;;0.50;;
17927;SDS011;9089;58.396;15.544;2023-02-28T13:55:25;1.80;;;0.73;;
17927;SDS011;9089;58.396;15.544;2023-02-28T13:58:05;0.70;;;0.70;;
17927;SDS011;9089;58.396;15.544;2023-02-28T14:00:37;7.35;;;0.70;;
17927;SDS011;9089;58.396;15.544;2023-02-28T14:03:23;1.73;;;0.80;;
17927;SDS011;9089;58.396;15.544;2023-02-28T14:08:31;0.50;;;0.50;;
17927;SDS011;9089;58.396;15.544;2023-02-28T14:11:02;0.50;;;0.50;;
17927;SDS011;9089;58.396;15.544;2023-02-28T14:13:44;2.15;;;0.63;;
17927;SDS011;9089;58.396;15.544;2023-02-28T14:16:13;1.70;;;0.73;;
17927;SDS011;9089;58.396;15.544;2023-02-28T14:18:40;0.60;;;0.60;;
17927;SDS011;9089;58.396;15.544;2023-02-28T14:21:11;0.90;;;0.40;;
17927;SDS011;9089;58.396;15.544;2023-02-28T14:23:42;1.67;;;0.60;;
17927;SDS011;9089;58.396;15.544;2023-02-28T14:26:12;2.08;;;0.50;;
17927;SDS011;9089;58.396;15.544;2023-02-28T14:28:43;0.50;;;0.47;;
17927;SDS011;9089;58.396;15.544;2023-02-28T14:31:12;1.10;;;0.60;;
17927;SDS011;9089;58.396;15.544;2023-02-28T14:33:42;2.75;;;0.90;;
17927;SDS011;9089;58.396;15.544;2023-02-28T14:36:10;0.60;;;0.60;;
17927;SDS011;9089;58.396;15.544;2023-02-28T14:38:40;0.52;;;0.52;;
17927;SDS011;9089;58.396;15.544;2023-02-28T14:41:12;0.63;;;0.63;;
17927;SDS011;9089;58.396;15.544;2023-02-28T14:43:47;2.88;;;0.90;;
17927;SDS011;9089;58.396;15.544;2023-02-28T14:46:14;0.73;;;0.65;;
17927;SDS011;9089;58.396;15.544;2023-02-28T14:48:40;0.63;;;0.60;;
17927;SDS011;9089;58.396;15.544;2023-02-28T14:51:06;1.02;;;0.73;;
17927;SDS011;9089;58.396;15.544;2023-02-28T14:53:35;1.60;;;0.90;;
17927;SDS011;9089;58.396;15.544;2023-02-28T14:56:01;2.00;;;0.77;;
17927;SDS011;9089;58.396;15.544;2023-02-28T14:58:27;1.50;;;0.80;;
17927;SDS011;9089;58.396;15.544;2023-02-28T15:00:54;0.68;;;0.68;;
17927;SDS011;9089;58.396;15.544;2023-02-28T15:03:23;0.63;;;0.63;;
17927;SDS011;9089;58.396;15.544;2023-02-28T15:05:52;1.00;;;0.70;;
17927;SDS011;9089;58.396;15.544;2023-02-28T15:08:18;3.63;;;1.23;;
17927;SDS011;9089;58.396;15.544;2023-02-28T15:10:45;3.42;;;0.90;;
17927;SDS011;9089;58.396;15.544;2023-02-28T15:13:15;0.73;;;0.60;;
17927;SDS011;9089;58.396;15.544;2023-02-28T15:15:43;5.47;;;0.75;;